Time;durP1;ratioP1;P1;durP2;ratioP2;P2;SDS_P1;SDS_P2;PMS_P1;PMS_P2;Temp;Humidity;BMP_temperature;BMP_pressure;BME280_temperature;BME280_humidity;BME280_pressure;Samples;Min_cycle;Max_cycle;Signal;HPM_P1;HPM_P2
2022/08/27 00:02:18;;;;;;;8.43;3.17;;;17.10;99.90;;;;;;5031741;28;20363;-61
2022/08/27 00:04:45;;;;;;;8.10;3.25;;;17.00;99.90;;;;;;5031803;28;20040;-65
2022/08/27 00:07:14;;;;;;;9.75;3.47;;;17.00;99.90;;;;;;5031517;28;20079;-61
2022/08/27 00:09:40;;;;;;;7.28;3.22;;;17.00;99.90;;;;;;5030470;28;20075;-61
2022/08/27 00:12:07;;;;;;;9.13;3.53;;;16.90;99.90;;;;;;5031553;28;20033;-61
2022/08/27 00:14:34;;;;;;;8.18;3.28;;;16.90;99.90;;;;;;5031782;28;20142;-61
2022/08/27 00:16:59;;;;;;;7.68;3.05;;;16.90;99.90;;;;;;5031323;28;20033;-62
2022/08/27 00:19:25;;;;;;;7.53;3.47;;;16.90;99.90;;;;;;5031848;28;20152;-62
2022/08/27 00:21:51;;;;;;;8.68;3.45;;;16.90;99.90;;;;;;5031383;28;20510;-61
2022/08/27 00:24:17;;;;;;;7.32;3.65;;;17.00;99.90;;;;;;5029975;28;20029;-61
2022/08/27 00:26:43;;;;;;;9.60;3.22;;;16.90;99.90;;;;;;5031251;28;20018;-61
2022/08/27 00:29:09;;;;;;;9.35;3.47;;;16.90;99.90;;;;;;5031425;28;20045;-62
2022/08/27 00:31:34;;;;;;;8.43;3.25;;;16.90;99.90;;;;;;5031250;28;20024;-62
2022/08/27 00:34:00;;;;;;;8.13;3.08;;;16.90;99.90;;;;;;5031152;28;20442;-62
2022/08/27 00:36:26;;;;;;;6.95;3.40;;;16.90;99.90;;;;;;5031330;28;20196;-61
2022/08/27 00:38:52;;;;;;;12.75;3.70;;;16.90;99.90;;;;;;5031237;28;20036;-61
2022/08/27 00:41:19;;;;;;;8.73;3.47;;;16.80;99.90;;;;;;5031204;28;20029;-61
2022/08/27 00:43:52;;;;;;;9.60;3.30;;;16.80;99.90;;;;;;5031108;28;20030;-61
2022/08/27 00:46:29;;;;;;;11.60;4.47;;;16.90;99.90;;;;;;5031301;28;20017;-61
2022/08/27 00:49:24;;;;;;;10.93;3.50;;;16.90;99.90;;;;;;5030000;28;20033;-61
2022/08/27 00:51:56;;;;;;;8.82;3.30;;;16.90;99.90;;;;;;5007574;28;20067;-61
2022/08/27 00:54:21;;;;;;;8.82;3.70;;;16.80;99.90;;;;;;5029426;28;20390;-61
2022/08/27 00:56:48;;;;;;;10.52;3.35;;;16.70;99.90;;;;;;5030869;28;20029;-61
2022/08/27 00:59:15;;;;;;;6.18;3.42;;;16.70;99.90;;;;;;5029417;28;20192;-61
2022/08/27 01:04:30;;;;;;;10.77;3.63;;;16.70;99.90;;;;;;5030525;28;20125;-62
2022/08/27 01:06:56;;;;;;;7.47;3.30;;;16.70;99.90;;;;;;5032591;28;20025;-61
2022/08/27 01:09:22;;;;;;;8.07;3.50;;;16.60;99.90;;;;;;5035163;28;20029;-61
2022/08/27 01:11:48;;;;;;;8.35;3.22;;;16.70;99.90;;;;;;5034582;28;20029;-61
2022/08/27 01:14:15;;;;;;;10.75;3.75;;;16.70;99.90;;;;;;5034780;28;20139;-61
2022/08/27 01:16:46;;;;;;;9.85;3.70;;;16.70;99.90;;;;;;5034589;28;20226;-61
2022/08/27 01:19:44;;;;;;;8.00;3.30;;;16.70;99.90;;;;;;5034841;28;20033;-61
2022/08/27 01:22:49;;;;;;;7.50;3.85;;;16.60;99.90;;;;;;5017703;28;20033;-61
2022/08/27 01:25:16;;;;;;;10.43;4.03;;;16.60;99.90;;;;;;5034717;28;20017;-60
2022/08/27 01:27:43;;;;;;;7.88;3.90;;;16.60;99.90;;;;;;5034494;28;20482;-61
2022/08/27 01:30:12;;;;;;;8.77;4.00;;;16.60;99.90;;;;;;5034630;28;20030;-61
2022/08/27 01:32:38;;;;;;;8.70;3.75;;;16.50;99.90;;;;;;5034463;28;20502;-61
2022/08/27 01:35:06;;;;;;;8.40;3.88;;;16.50;99.90;;;;;;5034547;28;20031;-61
2022/08/27 01:37:33;;;;;;;9.93;4.25;;;16.50;99.90;;;;;;5034202;28;20034;-63
2022/08/27 01:40:09;;;;;;;7.68;4.03;;;16.40;99.90;;;;;;5034524;28;20543;-60
2022/08/27 01:42:38;;;;;;;9.93;4.45;;;16.40;99.90;;;;;;5034359;28;20028;-60
2022/08/27 01:45:12;;;;;;;7.68;4.55;;;16.40;99.90;;;;;;5033176;28;20026;-61
2022/08/27 01:47:38;;;;;;;7.70;3.92;;;16.50;99.90;;;;;;5033037;28;20029;-60
2022/08/27 01:50:34;;;;;;;9.85;4.65;;;16.50;99.90;;;;;;5034352;28;20029;-61
2022/08/27 01:53:03;;;;;;;8.75;4.18;;;16.40;99.90;;;;;;5029621;28;20421;-62
2022/08/27 01:55:28;;;;;;;9.85;4.60;;;16.40;99.90;;;;;;5033959;28;20031;-61
2022/08/27 01:57:54;;;;;;;7.88;4.22;;;16.40;99.90;;;;;;5034522;28;20134;-61
2022/08/27 02:00:30;;;;;;;12.65;4.60;;;16.30;99.90;;;;;;5033387;28;20506;-61
2022/08/27 02:02:57;;;;;;;9.82;4.55;;;16.30;99.90;;;;;;5033135;28;20025;-61
2022/08/27 02:05:24;;;;;;;11.10;4.95;;;16.20;99.90;;;;;;5032632;28;20045;-61
2022/08/27 02:07:50;;;;;;;11.02;4.95;;;16.10;99.90;;;;;;5032841;28;20112;-60
2022/08/27 02:10:22;;;;;;;13.45;5.07;;;16.10;99.90;;;;;;5032827;28;20105;-61
2022/08/27 02:12:48;;;;;;;7.55;5.20;;;16.10;99.90;;;;;;5032512;28;20132;-61
2022/08/27 02:15:14;;;;;;;13.85;5.47;;;16.10;99.90;;;;;;5033055;28;20028;-61
2022/08/27 02:17:40;;;;;;;9.57;5.47;;;16.10;99.90;;;;;;5030908;28;20037;-61
2022/08/27 02:20:08;;;;;;;10.68;5.28;;;16.10;99.90;;;;;;5032457;28;20079;-61
2022/08/27 02:22:34;;;;;;;8.13;5.07;;;16.00;99.90;;;;;;5031281;28;20462;-62
2022/08/27 02:25:00;;;;;;;11.13;5.40;;;16.00;99.90;;;;;;5032238;28;20072;-61
2022/08/27 02:27:26;;;;;;;10.18;5.20;;;16.00;99.90;;;;;;5032472;28;20026;-61
2022/08/27 02:29:53;;;;;;;11.20;5.72;;;16.00;99.90;;;;;;5032304;28;20079;-61
2022/08/27 02:32:19;;;;;;;12.43;5.60;;;16.00;99.90;;;;;;5032183;28;20394;-61
2022/08/27 02:34:44;;;;;;;8.23;5.90;;;16.00;99.90;;;;;;5032252;28;20036;-62
2022/08/27 02:37:10;;;;;;;16.05;6.15;;;16.10;99.90;;;;;;5032154;28;20029;-61
2022/08/27 02:39:36;;;;;;;15.35;5.93;;;16.10;99.90;;;;;;5032292;28;20022;-61
2022/08/27 02:42:01;;;;;;;8.93;5.22;;;16.10;99.90;;;;;;5032062;28;20033;-61
2022/08/27 02:44:27;;;;;;;10.02;5.82;;;16.10;99.90;;;;;;5032229;28;20028;-61
2022/08/27 02:46:52;;;;;;;11.15;5.88;;;16.00;99.90;;;;;;5031979;28;20030;-60
2022/08/27 02:49:18;;;;;;;14.27;6.20;;;16.00;99.90;;;;;;5032251;28;20108;-61
2022/08/27 02:51:44;;;;;;;9.98;6.22;;;16.00;99.90;;;;;;5032427;28;20021;-61
2022/08/27 02:54:10;;;;;;;11.38;6.00;;;16.00;99.90;;;;;;5032032;28;20482;-61
2022/08/27 02:56:36;;;;;;;13.25;6.30;;;16.10;99.90;;;;;;5031721;28;20025;-61
2022/08/27 02:59:02;;;;;;;10.27;5.87;;;16.10;99.90;;;;;;4993234;28;1111129;-61
2022/08/27 03:01:28;;;;;;;13.98;6.20;;;16.10;99.90;;;;;;5032963;28;20033;-62
2022/08/27 03:03:55;;;;;;;9.85;6.07;;;16.20;99.90;;;;;;5033066;28;20363;-60
2022/08/27 03:06:20;;;;;;;11.20;5.93;;;16.20;99.90;;;;;;5032737;28;20101;-61
2022/08/27 03:08:46;;;;;;;8.80;5.65;;;16.20;99.90;;;;;;5032930;28;20504;-61
2022/08/27 03:11:12;;;;;;;11.45;6.18;;;16.20;99.90;;;;;;5032526;28;20053;-60
2022/08/27 03:13:39;;;;;;;13.00;6.47;;;16.20;99.90;;;;;;5032552;28;20105;-61
2022/08/27 03:16:05;;;;;;;12.30;6.70;;;16.20;99.90;;;;;;5032512;28;20017;-61
2022/08/27 03:18:31;;;;;;;8.38;6.13;;;16.10;99.90;;;;;;5032614;28;20033;-61
2022/08/27 03:20:59;;;;;;;14.13;6.78;;;16.20;99.90;;;;;;5032471;28;20449;-61
2022/08/27 03:23:28;;;;;;;16.20;7.28;;;16.20;99.90;;;;;;5032566;28;20386;-62
2022/08/27 03:25:56;;;;;;;11.85;6.93;;;16.10;99.90;;;;;;5032233;28;20390;-61
2022/08/27 03:28:25;;;;;;;10.02;5.90;;;16.10;99.90;;;;;;5032081;28;20078;-61
2022/08/27 03:30:53;;;;;;;12.93;6.35;;;16.10;99.90;;;;;;5032021;28;20025;-61
2022/08/27 03:33:20;;;;;;;14.30;6.25;;;16.10;99.90;;;;;;5032219;28;20029;-60
2022/08/27 03:35:47;;;;;;;10.57;6.70;;;16.00;99.90;;;;;;5032201;28;20021;-60
2022/08/27 03:38:14;;;;;;;13.45;6.85;;;16.00;99.90;;;;;;5032217;28;20026;-60
2022/08/27 03:40:41;;;;;;;12.43;6.75;;;16.00;99.90;;;;;;5031891;28;20057;-61
2022/08/27 03:43:08;;;;;;;11.02;6.57;;;16.00;99.90;;;;;;5031994;28;20037;-61
2022/08/27 03:45:34;;;;;;;12.45;7.22;;;15.90;99.90;;;;;;5032046;28;20061;-61
2022/08/27 03:48:00;;;;;;;9.93;6.60;;;15.80;99.90;;;;;;5031988;28;20477;-60
2022/08/27 03:50:26;;;;;;;10.32;6.35;;;15.80;99.90;;;;;;5032242;28;20037;-61
2022/08/27 03:52:52;;;;;;;11.88;7.82;;;15.70;99.90;;;;;;5031703;28;20438;-61
2022/08/27 03:55:17;;;;;;;12.55;7.43;;;15.70;99.90;;;;;;5031987;28;20029;-60
2022/08/27 03:57:43;;;;;;;15.00;7.45;;;15.80;99.90;;;;;;5030500;28;20029;-61
2022/08/27 04:00:11;;;;;;;14.18;8.07;;;15.80;99.90;;;;;;5031538;28;20045;-60
2022/08/27 04:02:37;;;;;;;12.32;7.97;;;15.70;99.90;;;;;;5031786;28;20083;-60
2022/08/27 04:05:04;;;;;;;14.05;7.95;;;15.70;99.90;;;;;;5031711;28;20463;-61
2022/08/27 04:07:31;;;;;;;13.40;7.53;;;15.60;99.90;;;;;;5031617;28;20053;-61
2022/08/27 04:09:57;;;;;;;15.18;8.00;;;15.60;99.90;;;;;;5031583;28;20029;-61
2022/08/27 04:12:23;;;;;;;16.20;7.78;;;15.50;99.90;;;;;;5031733;28;20418;-60
2022/08/27 04:14:49;;;;;;;11.77;8.32;;;15.60;99.90;;;;;;5031623;28;20037;-61
2022/08/27 04:17:15;;;;;;;12.18;8.40;;;15.60;99.90;;;;;;5031704;28;20112;-61
2022/08/27 04:19:40;;;;;;;10.55;7.97;;;15.60;99.90;;;;;;5031867;28;20047;-61
2022/08/27 04:22:06;;;;;;;13.48;7.95;;;15.60;99.90;;;;;;5031447;28;20025;-61
2022/08/27 04:24:34;;;;;;;13.80;8.25;;;15.50;99.90;;;;;;5031699;28;20068;-61
2022/08/27 04:27:01;;;;;;;13.50;8.43;;;15.40;99.90;;;;;;5031362;28;20034;-61
2022/08/27 04:29:28;;;;;;;12.45;8.48;;;15.40;99.90;;;;;;5031567;28;20104;-62
2022/08/27 04:31:54;;;;;;;13.73;8.35;;;15.40;99.90;;;;;;5031325;28;20029;-61
2022/08/27 04:34:20;;;;;;;14.20;8.70;;;15.40;99.90;;;;;;5031215;28;20017;-61
2022/08/27 04:36:46;;;;;;;12.40;8.32;;;15.50;99.90;;;;;;5031137;28;20083;-61
2022/08/27 04:39:13;;;;;;;15.00;8.65;;;15.50;99.90;;;;;;5031309;28;20075;-61
2022/08/27 04:41:39;;;;;;;12.15;8.25;;;15.50;99.90;;;;;;5031114;28;20025;-61
2022/08/27 04:44:07;;;;;;;12.88;8.43;;;15.50;99.90;;;;;;5031475;28;20025;-61
2022/08/27 04:46:38;;;;;;;19.33;8.60;;;15.50;99.90;;;;;;5030857;28;20044;-61
2022/08/27 04:49:09;;;;;;;11.40;7.93;;;15.60;99.90;;;;;;5031220;28;20044;-61
2022/08/27 04:51:35;;;;;;;16.63;9.05;;;15.50;99.90;;;;;;5031278;28;20478;-61
2022/08/27 04:54:02;;;;;;;18.85;9.15;;;15.60;99.90;;;;;;5030922;28;20040;-61
2022/08/27 04:56:29;;;;;;;14.93;9.18;;;15.50;99.90;;;;;;5030649;28;20061;-61
2022/08/27 04:58:55;;;;;;;9.80;8.15;;;15.60;99.90;;;;;;5030828;28;20091;-61
2022/08/27 05:01:24;;;;;;;17.17;8.40;;;15.60;99.90;;;;;;5030699;28;20037;-61
2022/08/27 05:03:50;;;;;;;17.75;8.85;;;15.50;99.90;;;;;;5030475;28;20029;-61
2022/08/27 05:06:16;;;;;;;13.75;8.15;;;15.60;99.90;;;;;;5030762;28;20032;-61
2022/08/27 05:08:42;;;;;;;11.32;7.57;;;15.60;99.90;;;;;;5030680;28;20162;-61
2022/08/27 05:11:11;;;;;;;12.65;7.32;;;15.60;99.90;;;;;;5030822;28;20040;-60
2022/08/27 05:13:37;;;;;;;11.82;6.32;;;15.60;99.90;;;;;;5030618;28;20079;-61
2022/08/27 05:16:06;;;;;;;12.93;6.97;;;15.60;99.90;;;;;;5030568;28;20482;-61
2022/08/27 05:18:32;;;;;;;11.82;6.65;;;15.70;99.90;;;;;;5029350;28;20394;-61
2022/08/27 05:20:59;;;;;;;16.38;6.68;;;15.70;99.90;;;;;;5030635;28;20445;-61
2022/08/27 05:23:26;;;;;;;12.18;6.72;;;15.60;99.90;;;;;;5030536;28;20445;-60
2022/08/27 05:25:53;;;;;;;14.70;7.75;;;15.70;99.90;;;;;;5030494;28;20022;-61
2022/08/27 05:28:21;;;;;;;11.75;7.50;;;15.70;99.90;;;;;;5030758;28;20038;-61
2022/08/27 05:30:50;;;;;;;16.10;7.53;;;15.80;99.90;;;;;;5030796;28;20438;-59
2022/08/27 05:33:21;;;;;;;14.32;8.15;;;15.80;99.90;;;;;;5030347;28;20026;-59
2022/08/27 05:35:51;;;;;;;14.18;8.18;;;15.90;99.90;;;;;;5030375;28;20026;-60
2022/08/27 05:38:17;;;;;;;13.80;8.30;;;15.80;99.90;;;;;;5030796;28;20036;-60
2022/08/27 05:40:44;;;;;;;17.00;9.10;;;15.80;99.90;;;;;;5030159;28;20132;-59
2022/08/27 05:43:11;;;;;;;13.60;9.63;;;15.70;99.90;;;;;;5030447;28;20036;-59
2022/08/27 05:45:45;;;;;;;13.13;8.13;;;15.70;99.90;;;;;;5029078;28;20482;-60
2022/08/27 05:48:12;;;;;;;11.55;8.43;;;15.70;99.90;;;;;;5030514;28;20391;-59
2022/08/27 05:50:39;;;;;;;15.13;9.50;;;15.70;99.90;;;;;;5030022;28;20025;-60
2022/08/27 05:53:06;;;;;;;17.20;9.48;;;15.70;99.90;;;;;;5032304;28;20074;-60
2022/08/27 05:55:49;;;;;;;16.20;9.63;;;15.70;99.90;;;;;;5033682;28;20026;-59
2022/08/27 06:01:06;;;;;;;11.05;8.88;;;15.70;99.90;;;;;;5033730;28;20053;-62
2022/08/27 06:03:36;;;;;;;17.02;8.77;;;15.70;99.90;;;;;;5032666;28;20022;-61
2022/08/27 06:06:04;;;;;;;13.65;8.68;;;15.70;99.90;;;;;;5032316;28;20021;-60
2022/08/27 06:08:29;;;;;;;12.27;7.53;;;15.80;99.90;;;;;;5033785;28;20026;-60
2022/08/27 06:10:55;;;;;;;14.50;8.10;;;15.90;99.90;;;;;;5033838;28;20029;-63
2022/08/27 06:13:22;;;;;;;13.40;7.95;;;15.90;99.90;;;;;;5033451;28;20036;-59
2022/08/27 06:15:48;;;;;;;11.80;8.05;;;16.00;99.90;;;;;;5033629;28;20025;-60
2022/08/27 06:18:14;;;;;;;14.18;7.75;;;16.10;99.90;;;;;;5033795;28;20034;-59
2022/08/27 06:20:40;;;;;;;14.15;7.40;;;16.30;99.90;;;;;;5033322;28;20026;-59
2022/08/27 06:23:06;;;;;;;11.90;7.10;;;16.40;99.90;;;;;;5032191;28;20043;-59
2022/08/27 06:25:32;;;;;;;18.30;7.95;;;16.40;99.90;;;;;;5033172;28;20039;-60
2022/08/27 06:27:58;;;;;;;14.15;7.35;;;16.60;99.90;;;;;;5033670;28;20067;-60
2022/08/27 06:30:24;;;;;;;12.25;7.88;;;16.60;99.90;;;;;;5033299;28;20057;-60
2022/08/27 06:32:50;;;;;;;10.20;6.80;;;16.70;99.90;;;;;;5033072;28;20048;-61
2022/08/27 06:35:17;;;;;;;17.08;7.60;;;16.70;99.90;;;;;;5031901;28;20026;-61
2022/08/27 06:37:42;;;;;;;13.27;7.78;;;16.80;99.90;;;;;;5033083;28;20037;-60
2022/08/27 06:40:09;;;;;;;13.48;7.25;;;16.80;99.90;;;;;;5033034;28;20022;-60
2022/08/27 06:42:36;;;;;;;13.32;6.50;;;17.00;99.90;;;;;;5032955;28;20033;-61
2022/08/27 06:45:02;;;;;;;12.32;6.53;;;17.00;99.90;;;;;;5032956;28;20537;-60
2022/08/27 06:47:31;;;;;;;13.45;6.45;;;17.00;99.90;;;;;;5032973;28;20396;-61
2022/08/27 06:49:57;;;;;;;12.15;6.35;;;17.10;99.90;;;;;;5033153;28;20413;-62
2022/08/27 06:52:23;;;;;;;14.13;6.43;;;17.20;99.90;;;;;;5031585;28;20424;-60
2022/08/27 06:54:49;;;;;;;9.80;6.45;;;17.30;99.90;;;;;;5032708;28;20460;-60
2022/08/27 06:57:15;;;;;;;11.77;5.97;;;17.50;99.90;;;;;;5032837;28;20029;-60
2022/08/27 06:59:40;;;;;;;13.05;6.05;;;17.70;99.90;;;;;;5032791;28;20521;-60
2022/08/27 07:02:06;;;;;;;14.18;5.32;;;17.80;99.90;;;;;;5032780;28;20425;-61
2022/08/27 07:04:32;;;;;;;14.18;5.07;;;17.90;99.90;;;;;;5031328;28;20367;-61
2022/08/27 07:07:02;;;;;;;10.68;5.10;;;18.10;99.90;;;;;;5031266;28;20030;-61
2022/08/27 07:09:31;;;;;;;17.33;5.80;;;18.20;99.90;;;;;;5031681;28;20041;-62
2022/08/27 07:11:57;;;;;;;12.25;5.10;;;18.30;99.90;;;;;;5032498;28;20060;-61
2022/08/27 07:14:23;;;;;;;11.57;4.32;;;18.40;99.90;;;;;;5030958;28;20524;-62
2022/08/27 07:16:50;;;;;;;11.05;5.00;;;18.50;99.90;;;;;;5031221;28;20037;-62
2022/08/27 07:19:16;;;;;;;14.32;4.72;;;18.70;99.90;;;;;;5032620;28;20108;-61
2022/08/27 07:21:41;;;;;;;8.65;4.60;;;19.10;99.90;;;;;;5032218;28;20496;-60
2022/08/27 07:24:08;;;;;;;10.90;4.68;;;19.40;99.90;;;;;;5032396;28;20037;-62
2022/08/27 07:26:36;;;;;;;10.63;4.45;;;19.80;99.90;;;;;;5032316;28;20025;-62
2022/08/27 07:29:07;;;;;;;12.00;3.65;;;21.00;99.90;;;;;;5032348;28;20033;-63
2022/08/27 07:31:36;;;;;;;7.28;2.60;;;22.90;99.90;;;;;;5031011;28;20112;-62
2022/08/27 07:34:03;;;;;;;5.07;2.63;;;24.10;99.90;;;;;;5032559;28;20490;-62
2022/08/27 07:36:29;;;;;;;7.13;2.83;;;25.20;99.90;;;;;;5030702;28;20056;-62
2022/08/27 07:38:55;;;;;;;6.32;2.72;;;25.90;99.90;;;;;;5032371;28;20022;-64
2022/08/27 07:41:20;;;;;;;5.55;2.28;;;26.40;99.90;;;;;;5032413;28;20071;-63
2022/08/27 07:46:31;;;;;;;7.45;2.50;;;27.10;99.90;;;;;;5031918;28;20029;-65
2022/08/27 07:48:57;;;;;;;5.55;1.95;;;27.50;98.90;;;;;;5031907;28;20033;-65
2022/08/27 07:51:25;;;;;;;7.47;1.90;;;27.70;97.80;;;;;;5031760;28;20033;-65
2022/08/27 07:53:52;;;;;;;5.57;2.20;;;27.60;97.40;;;;;;5031684;28;20375;-64
2022/08/27 07:56:17;;;;;;;4.47;1.90;;;27.50;97.60;;;;;;5031862;28;20021;-64
2022/08/27 07:58:43;;;;;;;7.10;2.17;;;27.90;97.10;;;;;;5031784;28;20056;-65
2022/08/27 08:01:09;;;;;;;4.85;2.08;;;28.50;95.80;;;;;;5031261;28;20050;-64
2022/08/27 08:03:35;;;;;;;5.82;2.15;;;29.20;94.20;;;;;;5031864;28;20104;-62
2022/08/27 08:06:08;;;;;;;8.98;2.13;;;29.10;94.00;;;;;;5031882;28;20030;-62
2022/08/27 08:08:35;;;;;;;6.45;1.65;;;29.40;92.60;;;;;;5031799;28;20056;-62
2022/08/27 08:11:02;;;;;;;5.43;1.73;;;28.50;93.40;;;;;;5031830;28;20494;-62
2022/08/27 08:13:29;;;;;;;7.88;1.63;;;28.40;93.60;;;;;;5030123;28;20052;-62
2022/08/27 08:15:56;;;;;;;5.97;2.00;;;27.50;94.80;;;;;;5030994;28;20463;-63
2022/08/27 08:18:22;;;;;;;7.43;1.98;;;26.70;96.60;;;;;;5031378;28;20056;-62
2022/08/27 08:20:47;;;;;;;6.55;1.70;;;26.00;98.30;;;;;;5031486;28;20067;-62
2022/08/27 08:23:13;;;;;;;6.63;1.90;;;25.00;99.90;;;;;;5031207;28;20029;-63
2022/08/27 08:25:40;;;;;;;7.20;1.75;;;25.20;99.90;;;;;;5031150;28;20021;-63
2022/08/27 08:28:05;;;;;;;8.57;1.60;;;25.80;98.60;;;;;;5031281;28;20076;-63
2022/08/27 08:30:32;;;;;;;5.93;1.40;;;26.40;98.40;;;;;;5031084;28;20029;-64
2022/08/27 08:32:57;;;;;;;4.40;1.50;;;27.20;97.30;;;;;;5031256;28;20038;-63
2022/08/27 08:35:24;;;;;;;8.13;1.95;;;28.00;95.20;;;;;;5031135;28;20109;-63
2022/08/27 08:37:49;;;;;;;5.85;1.85;;;27.40;95.40;;;;;;5031142;28;20427;-64
2022/08/27 08:40:37;;;;;;;7.65;1.70;;;26.90;96.80;;;;;;5031028;28;20180;-64
2022/08/27 08:43:08;;;;;;;7.07;1.75;;;27.40;96.30;;;;;;5031150;28;20036;-64
2022/08/27 08:45:38;;;;;;;4.32;1.70;;;28.30;93.30;;;;;;5030944;28;20381;-64
2022/08/27 08:48:10;;;;;;;5.28;1.50;;;27.70;93.70;;;;;;5029933;28;20038;-63
2022/08/27 08:50:53;;;;;;;7.22;1.90;;;26.50;96.20;;;;;;5029476;28;20025;-63
2022/08/27 08:53:34;;;;;;;5.43;1.45;;;25.50;98.40;;;;;;5030603;28;20029;-64
2022/08/27 08:56:04;;;;;;;7.88;1.90;;;25.10;99.50;;;;;;5030881;28;20371;-63
2022/08/27 08:58:48;;;;;;;6.00;1.70;;;24.40;99.90;;;;;;5031259;28;20034;-63
2022/08/27 09:01:18;;;;;;;6.05;1.73;;;23.90;99.90;;;;;;5030466;28;20046;-62
2022/08/27 09:03:54;;;;;;;8.23;1.45;;;23.90;99.90;;;;;;5031113;28;20475;-63
2022/08/27 09:06:31;;;;;;;5.20;1.67;;;24.70;99.90;;;;;;5030858;28;20060;-63
2022/08/27 09:09:03;;;;;;;4.50;1.38;;;25.20;99.00;;;;;;5031022;28;20030;-63
2022/08/27 09:11:48;;;;;;;3.85;1.30;;;26.20;96.60;;;;;;5030860;28;20099;-64
2022/08/27 09:14:37;;;;;;;5.53;1.30;;;27.70;94.00;;;;;;5030874;28;20367;-64
2022/08/27 09:17:05;;;;;;;4.43;1.63;;;28.40;91.40;;;;;;5022249;28;20041;-64
2022/08/27 09:19:31;;;;;;;3.92;1.52;;;28.30;91.10;;;;;;5030615;28;20021;-63
2022/08/27 09:22:09;;;;;;;6.78;1.50;;;28.10;91.40;;;;;;5030821;28;20072;-63
2022/08/27 09:25:10;;;;;;;8.90;2.00;;;27.80;91.90;;;;;;5030488;28;20441;-64
2022/08/27 09:27:40;;;;;;;4.97;1.73;;;27.80;91.60;;;;;;5036654;28;20086;-64
2022/08/27 09:30:12;;;;;;;5.18;2.00;;;27.00;92.90;;;;;;5054876;28;20017;-63
2022/08/27 09:32:38;;;;;;;4.05;1.20;;;26.80;94.10;;;;;;5053911;28;20032;-64
2022/08/27 09:35:07;;;;;;;6.22;1.60;;;27.10;92.90;;;;;;5054201;28;20036;-64
2022/08/27 09:37:41;;;;;;;3.05;1.30;;;27.10;93.30;;;;;;5055152;28;20035;-64
2022/08/27 09:40:15;;;;;;;5.68;1.67;;;26.40;94.60;;;;;;5054927;28;20107;-63
2022/08/27 09:42:53;;;;;;;7.30;1.80;;;26.40;95.10;;;;;;5054031;28;20107;-63
2022/08/27 09:45:24;;;;;;;4.93;1.30;;;27.00;93.90;;;;;;5054005;28;20021;-63
2022/08/27 09:48:13;;;;;;;4.75;1.75;;;27.50;92.80;;;;;;5054033;28;20029;-63
2022/08/27 09:50:48;;;;;;;3.72;1.48;;;27.80;90.80;;;;;;5053666;28;20060;-63
2022/08/27 09:53:25;;;;;;;3.35;1.67;;;27.50;91.60;;;;;;5054138;28;20115;-64
2022/08/27 09:56:06;;;;;;;4.82;1.80;;;27.90;91.30;;;;;;5053929;28;20029;-64
2022/08/27 09:58:46;;;;;;;4.85;1.45;;;28.60;90.60;;;;;;5052336;28;20029;-64
2022/08/27 10:01:37;;;;;;;5.95;1.70;;;29.50;87.00;;;;;;5053592;28;20055;-64
2022/08/27 10:04:13;;;;;;;5.70;2.10;;;30.00;84.10;;;;;;5053840;28;20417;-64
2022/08/27 10:06:47;;;;;;;3.58;1.40;;;30.30;80.70;;;;;;5053658;28;20025;-64
2022/08/27 10:09:37;;;;;;;5.90;1.50;;;29.00;83.90;;;;;;5052730;28;20028;-64
2022/08/27 10:12:24;;;;;;;5.07;1.50;;;29.00;84.00;;;;;;5053508;28;20124;-63
2022/08/27 10:14:55;;;;;;;7.90;1.60;;;28.10;88.40;;;;;;5053567;28;20021;-64
2022/08/27 10:17:44;;;;;;;8.75;1.85;;;27.20;90.90;;;;;;5053525;28;20433;-63
2022/08/27 10:20:17;;;;;;;7.78;1.67;;;26.70;92.20;;;;;;5053371;28;20036;-64
2022/08/27 10:23:15;;;;;;;5.22;1.50;;;26.70;93.20;;;;;;5053566;28;20379;-64
2022/08/27 10:26:03;;;;;;;6.78;2.10;;;26.90;93.00;;;;;;5030459;28;20037;-62
2022/08/27 10:28:53;;;;;;;5.60;1.60;;;26.40;93.70;;;;;;5053639;28;20060;-63
2022/08/27 10:32:05;;;;;;;7.82;2.15;;;26.60;94.00;;;;;;5053291;28;20587;-63
2022/08/27 10:34:38;;;;;;;;;;;27.00;93.30;;;;;;5011423;28;20033;-63
2022/08/27 10:37:04;;;;;;;3.33;1.45;;;27.80;91.50;;;;;;5011144;28;19913;-63
2022/08/27 10:39:53;;;;;;;6.60;1.88;;;28.20;90.70;;;;;;5034933;28;20068;-63
2022/08/27 10:42:25;;;;;;;6.15;1.65;;;27.80;90.80;;;;;;5053323;28;20355;-63
2022/08/27 10:45:08;;;;;;;3.35;1.60;;;27.30;91.50;;;;;;5053052;28;20022;-62
2022/08/27 10:47:34;;;;;;;3.58;1.58;;;26.80;92.20;;;;;;5053147;28;20029;-62
2022/08/27 10:50:18;;;;;;;4.40;1.65;;;25.80;94.40;;;;;;5052970;28;20051;-62
2022/08/27 10:52:55;;;;;;;8.00;1.98;;;25.30;95.80;;;;;;5051291;28;20037;-62
2022/08/27 10:55:26;;;;;;;8.10;1.80;;;25.00;96.80;;;;;;5051313;28;20490;-63
2022/08/27 10:58:10;;;;;;;7.95;1.98;;;25.10;97.00;;;;;;5052793;28;20025;-64
2022/08/27 11:00:53;;;;;;;12.95;2.05;;;25.60;96.40;;;;;;5052263;28;20057;-64
2022/08/27 11:03:48;;;;;;;3.22;1.52;;;25.40;96.90;;;;;;5052691;28;20390;-64
2022/08/27 11:06:30;;;;;;;5.32;1.42;;;25.30;97.10;;;;;;5038070;28;20052;-64
2022/08/27 11:09:10;;;;;;;8.48;1.77;;;25.70;96.50;;;;;;5053025;28;20032;-63
2022/08/27 11:11:41;;;;;;;5.78;1.50;;;26.00;96.00;;;;;;5052735;28;20075;-63
2022/08/27 11:14:15;;;;;;;8.15;1.67;;;25.50;96.70;;;;;;5052417;28;20116;-63
2022/08/27 11:16:47;;;;;;;3.47;1.40;;;25.10;97.40;;;;;;5052408;28;20021;-63
2022/08/27 11:19:30;;;;;;;11.88;2.05;;;25.10;96.20;;;;;;5052686;28;20397;-63
2022/08/27 11:22:07;;;;;;;;;;;24.80;95.30;;;;;;5053099;28;20301;-64
2022/08/27 11:24:40;;;;;;;4.47;1.90;;;25.30;94.30;;;;;;5052154;28;20369;-64
2022/08/27 11:27:07;;;;;;;3.80;1.60;;;25.40;93.10;;;;;;5052061;28;20043;-63
2022/08/27 11:29:53;;;;;;;4.50;1.35;;;25.40;93.30;;;;;;5052193;28;20029;-63
2022/08/27 11:32:31;;;;;;;3.80;1.33;;;25.30;94.00;;;;;;5051688;28;20048;-63
2022/08/27 11:35:08;;;;;;;3.90;1.63;;;25.40;94.30;;;;;;5051909;28;20021;-63
2022/08/27 11:37:50;;;;;;;6.20;1.60;;;25.40;94.10;;;;;;5051855;28;20025;-63
2022/08/27 11:40:17;;;;;;;5.30;1.17;;;25.50;94.60;;;;;;5052325;28;20025;-64
2022/08/27 11:43:06;;;;;;;5.22;1.30;;;25.80;94.30;;;;;;5052146;28;20470;-63
2022/08/27 11:45:38;;;;;;;7.35;1.77;;;26.10;94.20;;;;;;5051822;28;20344;-63
2022/08/27 11:48:29;;;;;;;4.00;1.20;;;26.60;93.30;;;;;;5052243;28;20021;-64
2022/08/27 11:51:08;;;;;;;5.40;1.60;;;26.90;92.20;;;;;;5051787;28;20430;-64
2022/08/27 11:53:38;;;;;;;5.25;1.17;;;26.90;91.80;;;;;;5051923;28;20021;-64
2022/08/27 11:56:19;;;;;;;4.40;1.50;;;26.70;92.10;;;;;;5051867;28;20039;-64
2022/08/27 11:58:45;;;;;;;4.22;1.73;;;26.80;92.50;;;;;;5052165;28;20064;-64
2022/08/27 12:01:26;;;;;;;2.97;1.40;;;26.70;92.00;;;;;;5052029;28;20053;-64
2022/08/27 12:04:35;;;;;;;5.75;1.67;;;26.60;92.30;;;;;;5050979;28;20473;-63
2022/08/27 12:07:00;;;;;;;4.30;1.67;;;26.70;92.40;;;;;;5050835;28;20065;-62
2022/08/27 12:09:55;;;;;;;3.60;1.45;;;26.80;92.10;;;;;;5051995;28;20056;-63
2022/08/27 12:12:51;;;;;;;3.70;1.50;;;27.80;90.80;;;;;;5051597;28;20032;-64
2022/08/27 12:15:21;;;;;;;5.38;1.60;;;28.60;88.40;;;;;;5051661;28;20098;-64
2022/08/27 12:18:25;;;;;;;5.15;2.05;;;28.80;86.50;;;;;;5051770;28;20109;-64
2022/08/27 12:21:04;;;;;;;4.60;1.88;;;28.50;89.30;;;;;;5051692;28;20040;-64
2022/08/27 12:23:41;;;;;;;4.65;1.63;;;27.20;92.00;;;;;;5051971;28;20028;-63
2022/08/27 12:26:25;;;;;;;5.07;1.88;;;26.30;93.80;;;;;;5051941;28;20496;-65
2022/08/27 12:29:15;;;;;;;5.22;2.05;;;25.70;95.50;;;;;;5050718;28;20033;-64
2022/08/27 12:31:43;;;;;;;6.40;1.90;;;25.30;96.50;;;;;;5044121;28;20033;-63
2022/08/27 12:34:18;;;;;;;5.65;1.98;;;24.90;97.50;;;;;;5051503;28;20025;-63
2022/08/27 12:36:47;;;;;;;8.90;2.00;;;24.40;98.70;;;;;;5051377;28;20033;-63
2022/08/27 12:39:17;;;;;;;7.60;2.10;;;24.30;99.50;;;;;;5050345;28;20028;-64
2022/08/27 12:41:48;;;;;;;4.85;1.92;;;24.40;99.30;;;;;;5051311;28;20387;-64
2022/08/27 12:44:22;;;;;;;3.28;1.88;;;24.50;99.50;;;;;;5051367;28;20029;-64
2022/08/27 12:47:04;;;;;;;5.65;1.90;;;24.40;99.80;;;;;;5051085;28;20052;-63
2022/08/27 12:49:40;;;;;;;4.40;1.80;;;24.30;99.50;;;;;;5051248;28;20075;-63
2022/08/27 12:52:32;;;;;;;3.75;1.90;;;24.20;99.20;;;;;;5051209;28;20033;-63
2022/08/27 12:55:19;;;;;;;3.92;1.83;;;24.20;99.00;;;;;;5051214;28;20033;-63
2022/08/27 12:57:50;;;;;;;2.88;1.45;;;24.20;99.10;;;;;;5051089;28;20036;-65
2022/08/27 13:00:19;;;;;;;4.60;1.60;;;24.40;98.50;;;;;;5050896;28;20037;-63
2022/08/27 13:03:10;;;;;;;3.78;1.48;;;24.50;98.10;;;;;;5054395;28;20686;-63
2022/08/27 13:05:42;;;;;;;2.20;1.60;;;24.60;98.00;;;;;;5055135;28;20111;-63
2022/08/27 13:08:18;;;;;;;4.53;1.63;;;24.30;98.00;;;;;;5055427;28;20033;-63
2022/08/27 13:10:45;;;;;;;6.43;2.10;;;24.30;97.90;;;;;;5055006;28;20029;-62
2022/08/27 13:13:15;;;;;;;4.45;1.77;;;24.40;98.00;;;;;;5055312;28;20029;-62